Virgo Phoenix — 3FMO8 — position and weather

sailwx.info

Track history (hours):
 
Tides and Currents Weather Stations Pressure Air Temp Water Temp Dewpoint Dewpoint Depression Visibility Wind Speed Wind Dir Waves Ship Positions

Virgo Phoenix

Last reported at 2016-Aug-23 12:32 UTC. Time now 2016-Aug-24 02:36 UTC.
Position N 31°24' E 121°33'.

Length 96 m; draft 6.1 m.

Type: Ship (hazmat cat C). MMSI: 370795000.

Date/timePositionNaut miles runAvg speedWind from/ knotsBaromVisibWave heightAir tempDewpointWater temp
2016-Aug-23 12:32N 31°24' E 121°33'1010.2
2016-Aug-23 11:33N 31°30' E 121°24'1110.7
2016-Aug-23 10:33N 31°38' E 121°15'62 2.5
2016-Aug-22 09:33N 31°57' E 120°06'1212.1
2016-Aug-22 08:33N 31°59' E 120°20'1110.5
2016-Aug-22 07:33N 32°04' E 120°31'37 1.4
2016-Aug-21 04:30N 31°44' E 121°07'1010.5
2016-Aug-21 03:32N 31°37' E 121°16'3 2.8
2016-Aug-21 02:32N 31°35' E 121°17'0 0.0
2016-Aug-21 01:32N 31°35' E 121°17'0 0.0
2016-Aug-21 00:29N 31°35' E 121°17'0 0.0
2016-Aug-20 23:20N 31°35' E 121°17'0 0.0
2016-Aug-20 22:32N 31°35' E 121°17'0 0.0
2016-Aug-20 21:32N 31°35' E 121°17'0 0.0
2016-Aug-20 20:32N 31°35' E 121°17'0 0.0
2016-Aug-20 19:32N 31°35' E 121°17'0 0.0
2016-Aug-20 18:14N 31°35' E 121°17'0 0.0
2016-Aug-20 17:32N 31°35' E 121°17'0 0.0
2016-Aug-20 16:32N 31°35' E 121°17'0 0.0
2016-Aug-20 15:20N 31°35' E 121°17'0 0.0
2016-Aug-20 14:29N 31°35' E 121°17'0 0.0
2016-Aug-20 13:26N 31°35' E 121°17'0 0.0
2016-Aug-20 12:23N 31°35' E 121°17'0 0.2
2016-Aug-20 09:31N 31°35' E 121°18'2 1.4
2016-Aug-20 08:04N 31°34' E 121°20'510.2
2016-Aug-20 07:34N 31°30' E 121°25'1010.0
2016-Aug-20 06:33N 31°24' E 121°34'10 9.0
2016-Aug-20 05:30N 31°19' E 121°43'  
2016-Aug-16 12:13N 35°11' E 139°45'812.5
2016-Aug-16 11:33N 35°19' E 139°43'1212.2
2016-Aug-16 10:34N 35°29' E 139°51'1010.0
2016-Aug-16 09:30N 35°32' E 140°03'0 0.0
2016-Aug-16 08:24N 35°32' E 140°03'0 0.0
2016-Aug-16 07:06N 35°32' E 140°03'0 0.0
2016-Aug-16 04:12N 35°32' E 140°03'0 0.0
2016-Aug-16 03:24N 35°32' E 140°03'0 0.0
2016-Aug-16 02:30N 35°32' E 140°03'0 0.0
2016-Aug-16 01:18N 35°32' E 140°03'0 0.0
2016-Aug-16 00:30N 35°32' E 140°03'0 0.0
2016-Aug-15 23:30N 35°32' E 140°03'2 0.8
2016-Aug-15 21:29N 35°33' E 140°02'0 0.0
2016-Aug-15 19:32N 35°33' E 140°02'0 0.1
2016-Aug-15 18:29N 35°33' E 140°02'0 0.0
2016-Aug-15 17:26N 35°33' E 140°02'0 0.1
2016-Aug-15 16:29N 35°33' E 140°02'0 0.0
2016-Aug-15 15:29N 35°33' E 140°02'0 0.0
2016-Aug-15 14:29N 35°33' E 140°02'0 0.0
2016-Aug-15 13:29N 35°33' E 140°02'0 0.0
2016-Aug-15 12:29N 35°33' E 140°02'0 0.0
2016-Aug-15 11:23N 35°33' E 140°02'0 0.0
2016-Aug-15 10:17N 35°33' E 140°02'0 0.0
2016-Aug-15 09:11N 35°33' E 140°02'0 0.0
2016-Aug-15 08:29N 35°33' E 140°02'0 0.1
2016-Aug-15 07:32N 35°33' E 140°02'0 0.0
2016-Aug-15 06:29N 35°33' E 140°02'0 0.0
2016-Aug-15 04:29N 35°33' E 140°02'1010.5
2016-Aug-15 03:34N 35°28' E 139°52'1111.2
2016-Aug-15 02:34N 35°19' E 139°44'1010.1
2016-Aug-15 01:33N 35°09' E 139°47'  
Track history (hours):
 
Tides and Currents Weather Stations Pressure Air Temp Water Temp Dewpoint Dewpoint Depression Visibility Wind Speed Wind Dir Waves Ship Positions

Virgo Phoenix

Last reported at 2016-Aug-23 12:32 UTC. Time now 2016-Aug-24 02:36 UTC.
Position N 31°24' E 121°33'.

Length 96 m; draft 6.1 m.

Type: Ship (hazmat cat C). MMSI: 370795000.

Date/timePositionNaut miles runAvg speedWind from/ knotsBaromVisibWave heightAir tempDewpointWater temp
2016-Aug-23 12:32N 31°24' E 121°33'1010.2
2016-Aug-23 11:33N 31°30' E 121°24'1110.7
2016-Aug-23 10:33N 31°38' E 121°15'62 2.5
2016-Aug-22 09:33N 31°57' E 120°06'1212.1
2016-Aug-22 08:33N 31°59' E 120°20'1110.5
2016-Aug-22 07:33N 32°04' E 120°31'37 1.4
2016-Aug-21 04:30N 31°44' E 121°07'1010.5
2016-Aug-21 03:32N 31°37' E 121°16'3 2.8
2016-Aug-21 02:32N 31°35' E 121°17'0 0.0
2016-Aug-21 01:32N 31°35' E 121°17'0 0.0
2016-Aug-21 00:29N 31°35' E 121°17'0 0.0
2016-Aug-20 23:20N 31°35' E 121°17'0 0.0
2016-Aug-20 22:32N 31°35' E 121°17'0 0.0
2016-Aug-20 21:32N 31°35' E 121°17'0 0.0
2016-Aug-20 20:32N 31°35' E 121°17'0 0.0
2016-Aug-20 19:32N 31°35' E 121°17'0 0.0
2016-Aug-20 18:14N 31°35' E 121°17'0 0.0
2016-Aug-20 17:32N 31°35' E 121°17'0 0.0
2016-Aug-20 16:32N 31°35' E 121°17'0 0.0
2016-Aug-20 15:20N 31°35' E 121°17'0 0.0
2016-Aug-20 14:29N 31°35' E 121°17'0 0.0
2016-Aug-20 13:26N 31°35' E 121°17'0 0.0
2016-Aug-20 12:23N 31°35' E 121°17'0 0.2
2016-Aug-20 09:31N 31°35' E 121°18'2 1.4
2016-Aug-20 08:04N 31°34' E 121°20'510.2
2016-Aug-20 07:34N 31°30' E 121°25'1010.0
2016-Aug-20 06:33N 31°24' E 121°34'10 9.0
2016-Aug-20 05:30N 31°19' E 121°43'  
2016-Aug-16 12:13N 35°11' E 139°45'812.5
2016-Aug-16 11:33N 35°19' E 139°43'1212.2
2016-Aug-16 10:34N 35°29' E 139°51'1010.0
2016-Aug-16 09:30N 35°32' E 140°03'0 0.0
2016-Aug-16 08:24N 35°32' E 140°03'0 0.0
2016-Aug-16 07:06N 35°32' E 140°03'0 0.0
2016-Aug-16 04:12N 35°32' E 140°03'0 0.0
2016-Aug-16 03:24N 35°32' E 140°03'0 0.0
2016-Aug-16 02:30N 35°32' E 140°03'0 0.0
2016-Aug-16 01:18N 35°32' E 140°03'0 0.0
2016-Aug-16 00:30N 35°32' E 140°03'0 0.0
2016-Aug-15 23:30N 35°32' E 140°03'2 0.8
2016-Aug-15 21:29N 35°33' E 140°02'0 0.0
2016-Aug-15 19:32N 35°33' E 140°02'0 0.1
2016-Aug-15 18:29N 35°33' E 140°02'0 0.0
2016-Aug-15 17:26N 35°33' E 140°02'0 0.1
2016-Aug-15 16:29N 35°33' E 140°02'0 0.0
2016-Aug-15 15:29N 35°33' E 140°02'0 0.0
2016-Aug-15 14:29N 35°33' E 140°02'0 0.0
2016-Aug-15 13:29N 35°33' E 140°02'0 0.0
2016-Aug-15 12:29N 35°33' E 140°02'0 0.0
2016-Aug-15 11:23N 35°33' E 140°02'0 0.0
2016-Aug-15 10:17N 35°33' E 140°02'0 0.0
2016-Aug-15 09:11N 35°33' E 140°02'0 0.0
2016-Aug-15 08:29N 35°33' E 140°02'0 0.1
2016-Aug-15 07:32N 35°33' E 140°02'0 0.0
2016-Aug-15 06:29N 35°33' E 140°02'0 0.0
2016-Aug-15 04:29N 35°33' E 140°02'1010.5
2016-Aug-15 03:34N 35°28' E 139°52'1111.2
2016-Aug-15 02:34N 35°19' E 139°44'1010.1
2016-Aug-15 01:33N 35°09' E 139°47'  

Dump ship's entire track history